Time;durP1;ratioP1;P1;durP2;ratioP2;P2;SDS_P1;SDS_P2;PMS_P1;PMS_P2;Temp;Humidity;BMP_temperature;BMP_pressure;BME280_temperature;BME280_humidity;BME280_pressure;Samples;Min_cycle;Max_cycle;Signal;HPM_P1;HPM_P2
2023/01/04 00:00:48;;;;;;;;;;;7.40;99.90;;;;;;5065693;28;20499;-76
2023/01/04 00:03:15;;;;;;;;;;;7.30;99.90;;;;;;5062072;28;19909;-75
2023/01/04 00:05:40;;;;;;;;;;;5.10;99.90;;;;;;5061529;28;19943;-75
2023/01/04 00:08:09;;;;;;;;;;;7.30;99.90;;;;;;5061725;28;19905;-75
2023/01/04 00:10:40;;;;;;;;;;;7.30;99.90;;;;;;5061945;28;19916;-77
2023/01/04 00:13:05;;;;;;;;;;;7.20;99.90;;;;;;5052997;28;19916;-76
2023/01/04 00:15:31;;;;;;;;;;;7.20;99.90;;;;;;5070457;28;19904;-76
2023/01/04 00:17:57;;;;;;;;;;;7.20;99.90;;;;;;5072372;28;19917;-78
2023/01/04 00:20:22;;;;;;;;;;;7.20;99.90;;;;;;5073591;28;19909;-75
2023/01/04 00:22:51;;;;;;;;;;;8.30;99.90;;;;;;5071721;28;19980;-77
2023/01/04 00:25:16;;;;;;;;;;;7.30;99.90;;;;;;5072548;28;19948;-76
2023/01/04 00:27:51;;;;;;;;;;;7.30;99.90;;;;;;5051690;28;19969;-77
2023/01/04 00:30:16;;;;;;;;;;;7.30;99.90;;;;;;5057817;28;19945;-75
2023/01/04 00:32:42;;;;;;;;;;;7.30;99.90;;;;;;5060726;28;20588;-79
2023/01/04 00:35:08;;;;;;;;;;;7.30;99.90;;;;;;5042151;28;19971;-75
2023/01/04 00:37:34;;;;;;;;;;;7.30;99.90;;;;;;5054274;28;19912;-75
2023/01/04 00:39:59;;;;;;;;;;;7.30;99.90;;;;;;5055428;28;20122;-76
2023/01/04 00:42:25;;;;;;;;;;;7.20;99.90;;;;;;5051881;28;20010;-76
2023/01/04 00:44:55;;;;;;;;;;;7.20;99.90;;;;;;5050148;28;19909;-76
2023/01/04 00:47:22;;;;;;;;;;;7.20;99.90;;;;;;5048117;28;19937;-77
2023/01/04 00:49:48;;;;;;;;;;;7.20;99.90;;;;;;5054559;28;19908;-75
2023/01/04 00:52:13;;;;;;;;;;;7.00;99.90;;;;;;5054859;28;20105;-75
2023/01/04 00:54:43;;;;;;;;;;;7.10;99.90;;;;;;5058000;28;19999;-75
2023/01/04 00:57:14;;;;;;;;;;;7.10;99.90;;;;;;5055001;28;20220;-76
2023/01/04 00:59:41;;;;;;;;;;;7.10;99.90;;;;;;5061332;28;19921;-77
2023/01/04 01:02:07;;;;;;;;;;;7.10;99.90;;;;;;5061182;28;19905;-76
2023/01/04 01:04:33;;;;;;;;;;;7.00;99.90;;;;;;5053361;28;19905;-76
2023/01/04 01:07:00;;;;;;;;;;;6.90;99.90;;;;;;5053288;28;19909;-75
2023/01/04 01:09:26;;;;;;;;;;;6.80;99.90;;;;;;5034855;28;20477;-76
2023/01/04 01:11:52;;;;;;;;;;;6.70;99.90;;;;;;5034501;28;20518;-75
2023/01/04 01:14:21;;;;;;;;;;;6.80;99.90;;;;;;5052390;28;19912;-75
2023/01/04 01:16:47;;;;;;;;;;;6.90;99.90;;;;;;5053692;28;19919;-76
2023/01/04 01:19:14;;;;;;;;;;;7.10;99.90;;;;;;5034740;28;19913;-75
2023/01/04 01:21:40;;;;;;;;;;;6.90;99.90;;;;;;5052517;28;19967;-75
2023/01/04 01:24:06;;;;;;;;;;;6.80;99.90;;;;;;5052489;28;19909;-75
2023/01/04 01:26:32;;;;;;;;;;;6.90;99.90;;;;;;5058409;28;19909;-76
2023/01/04 01:28:58;;;;;;;;;;;6.90;99.90;;;;;;5065691;28;19916;-75
2023/01/04 01:31:28;;;;;;;;;;;6.90;99.90;;;;;;5065988;28;19996;-79
2023/01/04 01:33:55;;;;;;;;;;;6.90;99.90;;;;;;5064755;28;20601;-78
2023/01/04 01:36:22;;;;;;;;;;;6.90;99.90;;;;;;5050191;28;20470;-76
2023/01/04 01:38:49;;;;;;;;;;;6.90;99.90;;;;;;5050598;28;19916;-75
2023/01/04 01:41:23;;;;;;;;;;;7.00;99.90;;;;;;5049801;28;19916;-75
2023/01/04 01:43:56;;;;;;;;;;;5.00;99.90;;;;;;5049391;28;19908;-76
2023/01/04 01:46:25;;;;;;;;;;;6.90;99.90;;;;;;5050615;28;19920;-75
2023/01/04 01:48:58;;;;;;;;;;;6.90;99.90;;;;;;5036725;28;20090;-75
2023/01/04 01:51:27;;;;;;;;;;;6.90;99.90;;;;;;5054400;28;20573;-76
2023/01/04 01:53:58;;;;;;;;;;;6.90;99.90;;;;;;5054480;28;20003;-75
2023/01/04 01:56:26;;;;;;;;;;;6.90;99.90;;;;;;5062403;28;19905;-74
2023/01/04 01:59:18;;;;;;;;;;;6.90;99.90;;;;;;5067181;28;19996;-75
2023/01/04 02:01:44;;;;;;;;;;;6.90;99.90;;;;;;5053714;28;19911;-75
2023/01/04 02:04:10;;;;;;;;;;;6.80;99.90;;;;;;5062464;28;19905;-76
2023/01/04 02:06:45;;;;;;;;;;;6.80;99.90;;;;;;5070185;28;19904;-77
2023/01/04 02:09:19;;;;;;;;;;;6.80;99.90;;;;;;5069078;28;20397;-76
2023/01/04 02:11:46;;;;;;;;;;;6.80;99.90;;;;;;5059533;28;20327;-77
2023/01/04 02:14:29;;;;;;;;;;;6.70;99.90;;;;;;5068544;28;19912;-79
2023/01/04 02:16:55;;;;;;;;;;;6.70;99.90;;;;;;5067517;28;19920;-75
2023/01/04 02:19:35;;;;;;;;;;;6.10;99.90;;;;;;5057742;28;19948;-78
2023/01/04 02:22:08;;;;;;;;;;;6.70;99.90;;;;;;5061752;28;19951;-78
2023/01/04 02:24:49;;;;;;;;;;;6.70;99.90;;;;;;5047396;28;20325;-78
2023/01/04 02:27:20;;;;;;;;;;;6.70;99.90;;;;;;5061043;28;20555;-74
2023/01/04 02:30:06;;;;;;;;;;;9.60;99.90;;;;;;5064501;28;20260;-76
2023/01/04 02:32:41;;;;;;;;;;;5.40;99.90;;;;;;5064309;28;19909;-76
2023/01/04 02:35:29;;;;;;;;;;;6.40;99.90;;;;;;5064293;28;19916;-75
2023/01/04 02:37:55;;;;;;;;;;;6.60;99.90;;;;;;5065952;28;19983;-75
2023/01/04 02:40:36;;;;;;;;;;;6.50;99.90;;;;;;5066240;28;19917;-75
2023/01/04 02:45:58;;;;;;;;;;;6.50;99.90;;;;;;5066720;28;19912;-77
2023/01/04 02:51:34;;;;;;;;;;;6.70;99.90;;;;;;5060578;28;19927;-75
2023/01/04 02:54:03;;;;;;;;;;;6.30;99.90;;;;;;5066941;28;19904;-80
2023/01/04 02:56:53;;;;;;;;;;;6.30;99.90;;;;;;5067253;28;19949;-75
2023/01/04 02:59:42;;;;;;;;;;;6.20;99.90;;;;;;5064407;28;20497;-75
2023/01/04 03:08:16;;;;;;;;;;;6.50;99.90;;;;;;5003979;28;19924;-78
2023/01/04 03:13:54;;;;;;;;;;;6.00;99.90;;;;;;4944529;29;19963;-78
2023/01/04 03:16:25;;;;;;;;;;;6.00;99.90;;;;;;4944416;29;20080;-77
2023/01/04 03:18:52;;;;;;;;;;;5.90;99.90;;;;;;4933011;29;19933;-75
2023/01/04 03:21:19;;;;;;;;;;;5.90;99.90;;;;;;4942674;29;19917;-75
2023/01/04 03:35:42;;;;;;;;;;;5.70;99.90;;;;;;4944241;29;19930;-76
2023/01/04 03:49:56;;;;;;;;;;;5.60;99.90;;;;;;4942812;28;19952;-76
2023/01/04 03:52:25;;;;;;;;;;;5.50;99.90;;;;;;4982306;28;19934;-75
2023/01/04 03:54:51;;;;;;;;;;;5.50;99.90;;;;;;4982663;28;19955;-75
2023/01/04 03:57:17;;;;;;;;;;;5.40;99.90;;;;;;4981880;28;20008;-75
2023/01/04 03:59:54;;;;;;;;;;;5.40;99.90;;;;;;4982378;28;19918;-78
2023/01/04 04:02:23;;;;;;;;;;;5.40;99.90;;;;;;4980963;28;19933;-75
2023/01/04 04:10:17;;;;;;;;;;;5.40;99.90;;;;;;4976505;28;19930;-74
2023/01/04 04:12:43;;;;;;;;;;;5.40;99.90;;;;;;4978751;28;19933;-78
2023/01/04 04:15:09;;;;;;;;;;;5.40;99.90;;;;;;4973768;28;19911;-76
2023/01/04 04:17:35;;;;;;;;;;;5.40;99.90;;;;;;4952815;28;19926;-76
2023/01/04 04:20:00;;;;;;;;;;;5.40;99.90;;;;;;4970597;28;19974;-84
2023/01/04 04:22:26;;;;;;;;;;;5.30;99.90;;;;;;5012812;28;20001;-76
2023/01/04 04:24:51;;;;;;;;;;;5.30;99.90;;;;;;5055243;28;19990;-78
2023/01/04 04:27:17;;;;;;;;;;;5.30;99.90;;;;;;5037070;28;20129;-75
2023/01/04 04:29:42;;;;;;;;;;;5.30;99.90;;;;;;5057609;28;19975;-80
2023/01/04 04:32:08;;;;;;;;;;;5.30;99.90;;;;;;5060071;28;20003;-75
2023/01/04 04:34:38;;;;;;;;;;;5.30;99.90;;;;;;5061693;28;19916;-77
2023/01/04 04:37:04;;;;;;;;;;;5.30;99.90;;;;;;5061016;28;19975;-79
2023/01/04 04:39:30;;;;;;;;;;;5.30;99.90;;;;;;5061156;28;20571;-76
2023/01/04 04:41:55;;;;;;;;;;;5.30;99.90;;;;;;5060299;28;19927;-75
2023/01/04 04:44:29;;;;;;;;;;;5.30;99.90;;;;;;5061636;28;19920;-79
2023/01/04 04:47:00;;;;;;;;;;;5.30;99.90;;;;;;5042490;28;19912;-75
2023/01/04 04:49:25;;;;;;;;;;;5.30;99.90;;;;;;5062735;28;19916;-75
2023/01/04 04:51:51;;;;;;;;;;;5.20;99.90;;;;;;5059242;28;19920;-75
2023/01/04 04:54:18;;;;;;;;;;;5.20;99.90;;;;;;5059949;28;19974;-75
2023/01/04 04:56:44;;;;;;;;;;;5.10;99.90;;;;;;5047577;28;19916;-74
2023/01/04 04:59:09;;;;;;;;;;;5.00;99.90;;;;;;5043061;28;19924;-75
2023/01/04 05:01:35;;;;;;;;;;;5.00;99.90;;;;;;5064528;28;19905;-75
2023/01/04 05:04:01;;;;;;;;;;;5.00;99.90;;;;;;5064150;28;19991;-75
2023/01/04 05:06:27;;;;;;;;;;;5.10;99.90;;;;;;5042825;28;20651;-75
2023/01/04 05:08:53;;;;;;;;;;;5.10;99.90;;;;;;5062883;28;19909;-76
2023/01/04 05:12:58;;;;;;;;;;;5.10;99.90;;;;;;5047150;28;19911;-76
2023/01/04 05:14:04;;;;;;;;;;;5.10;99.90;;;;;;5061653;28;20547;-74
2023/01/04 05:16:31;;;;;;;;;;;5.20;99.90;;;;;;5055651;28;19976;-75
2023/01/04 05:18:56;;;;;;;;;;;5.20;99.90;;;;;;5059809;28;19924;-75
2023/01/04 05:21:22;;;;;;;;;;;5.20;99.90;;;;;;5056669;28;19909;-77
2023/01/04 05:23:47;;;;;;;;;;;5.30;99.90;;;;;;5052883;28;19996;-75
2023/01/04 05:26:13;;;;;;;;;;;5.20;99.90;;;;;;5058795;28;19912;-74
2023/01/04 05:28:38;;;;;;;;;;;5.10;99.90;;;;;;5059206;28;19911;-79
2023/01/04 05:31:04;;;;;;;;;;;5.30;99.90;;;;;;5040128;28;19969;-75
2023/01/04 05:33:30;;;;;;;;;;;5.30;99.90;;;;;;5056561;28;19916;-75
2023/01/04 05:35:57;;;;;;;;;;;5.30;99.90;;;;;;5058107;28;19927;-74
2023/01/04 05:38:23;;;;;;;;;;;5.30;99.90;;;;;;5041250;28;19915;-74
2023/01/04 05:40:49;;;;;;;;;;;5.30;99.90;;;;;;5054537;28;19932;-76
2023/01/04 05:43:15;;;;;;;;;;;5.30;99.90;;;;;;5061268;28;19977;-79
2023/01/04 05:45:42;;;;;;;;;;;5.30;99.90;;;;;;5060851;28;19931;-74
2023/01/04 05:48:08;;;;;;;;;;;5.40;99.90;;;;;;5059378;28;19908;-74
2023/01/04 05:50:33;;;;;;;;;;;5.30;99.90;;;;;;5059085;28;19923;-75
2023/01/04 05:52:59;;;;;;;;;;;5.40;99.90;;;;;;5058371;28;19905;-79
2023/01/04 05:55:25;;;;;;;;;;;5.30;99.90;;;;;;5057201;28;19982;-77
2023/01/04 05:57:50;;;;;;;;;;;5.40;99.90;;;;;;5056287;28;19908;-79
2023/01/04 06:00:16;;;;;;;;;;;5.40;99.90;;;;;;5058327;28;19976;-75
2023/01/04 06:02:42;;;;;;;;;;;5.40;99.90;;;;;;5056519;28;19909;-77
2023/01/04 06:05:09;;;;;;;;;;;5.40;99.90;;;;;;5057147;28;19916;-78
2023/01/04 06:07:38;;;;;;;;;;;5.80;99.90;;;;;;5052377;28;19904;-75
2023/01/04 06:10:08;;;;;;;;;;;5.50;99.90;;;;;;5065863;28;19909;-77
2023/01/04 06:12:34;;;;;;;;;;;5.50;99.90;;;;;;5062491;28;19913;-75
2023/01/04 06:15:00;;;;;;;;;;;5.60;99.90;;;;;;5058033;28;19911;-75
2023/01/04 06:17:25;;;;;;;;;;;5.60;99.90;;;;;;5058631;28;19917;-76
2023/01/04 06:19:51;;;;;;;;;;;5.60;99.90;;;;;;5056186;28;19924;-79
2023/01/04 06:22:18;;;;;;;;;;;5.60;99.90;;;;;;5053588;28;19927;-78
2023/01/04 06:24:43;;;;;;;;;;;5.60;99.90;;;;;;5051881;28;20003;-75
2023/01/04 06:27:09;;;;;;;;;;;5.70;99.90;;;;;;5050699;28;19958;-78
2023/01/04 06:29:35;;;;;;;;;;;5.70;99.90;;;;;;5055161;28;19905;-80
2023/01/04 06:32:02;;;;;;;;;;;5.70;99.90;;;;;;5059786;28;19931;-78
2023/01/04 06:34:27;;;;;;;;;;;5.70;99.90;;;;;;5068474;28;19931;-75
2023/01/04 06:36:53;;;;;;;;;;;5.70;99.90;;;;;;5069586;28;19905;-76
2023/01/04 06:39:19;;;;;;;;;;;7.70;99.90;;;;;;5072715;28;19920;-81
2023/01/04 06:41:44;;;;;;;;;;;5.80;99.90;;;;;;5070676;28;19909;-77
2023/01/04 06:44:11;;;;;;;;;;;5.70;99.90;;;;;;5066340;28;19909;-75
2023/01/04 06:46:36;;;;;;;;;;;5.80;99.90;;;;;;5061719;28;19992;-74
2023/01/04 06:49:04;;;;;;;;;;;5.80;99.90;;;;;;5066495;28;19909;-75
2023/01/04 06:51:32;;;;;;;;;;;5.90;99.90;;;;;;5064180;28;19951;-73
2023/01/04 06:53:57;;;;;;;;;;;5.00;99.90;;;;;;5065547;28;19917;-74
2023/01/04 06:56:23;;;;;;;;;;;5.90;99.90;;;;;;5058712;28;19920;-74
2023/01/04 06:58:49;;;;;;;;;;;5.90;99.90;;;;;;5064315;28;19917;-78
2023/01/04 07:01:14;;;;;;;;;;;5.90;99.90;;;;;;5067393;28;19920;-76
2023/01/04 07:03:40;;;;;;;;;;;5.90;99.90;;;;;;5067337;28;19905;-77
2023/01/04 07:06:06;;;;;;;;;;;5.90;99.90;;;;;;5065567;28;19908;-75
2023/01/04 07:08:32;;;;;;;;;;;6.00;99.90;;;;;;5068657;28;19946;-74
2023/01/04 07:10:58;;;;;;;;;;;6.00;99.90;;;;;;5065333;28;19908;-76
2023/01/04 07:13:23;;;;;;;;;;;6.10;99.90;;;;;;5062127;28;19905;-76
2023/01/04 07:15:49;;;;;;;;;;;6.10;99.90;;;;;;5067532;28;19905;-74
2023/01/04 07:18:14;;;;;;;;;;;6.10;99.90;;;;;;5064605;28;20019;-75
2023/01/04 07:20:40;;;;;;;;;;;6.10;99.90;;;;;;5061435;28;19916;-79
2023/01/04 07:23:06;;;;;;;;;;;6.10;99.90;;;;;;5063596;28;20008;-79
2023/01/04 07:25:31;;;;;;;;;;;6.10;99.90;;;;;;5058398;28;19987;-78
2023/01/04 07:27:57;;;;;;;;;;;6.10;99.90;;;;;;5053425;28;19905;-77
2023/01/04 07:30:23;;;;;;;;;;;6.10;99.90;;;;;;5046049;28;19917;-76
2023/01/04 07:32:51;;;;;;;;;;;6.20;99.90;;;;;;5037422;28;19988;-76
2023/01/04 07:35:17;;;;;;;;;;;6.20;99.90;;;;;;5061217;28;19936;-79
2023/01/04 07:37:46;;;;;;;;;;;6.20;99.90;;;;;;5061733;28;19965;-76
2023/01/04 07:40:12;;;;;;;;;;;6.30;99.90;;;;;;5079181;28;19951;-78
2023/01/04 07:42:38;;;;;;;;;;;6.30;99.90;;;;;;5082099;28;19979;-75
2023/01/04 07:45:04;;;;;;;;;;;6.40;99.90;;;;;;5080028;28;20183;-75
2023/01/04 07:47:30;;;;;;;;;;;6.50;99.90;;;;;;5080042;28;19908;-75
2023/01/04 07:50:01;;;;;;;;;;;6.50;99.90;;;;;;5079454;28;19908;-76
2023/01/04 07:52:27;;;;;;;;;;;5.50;99.90;;;;;;5077368;28;19915;-75
2023/01/04 07:54:53;;;;;;;;;;;6.60;99.90;;;;;;5065351;28;19908;-75
2023/01/04 07:57:19;;;;;;;;;;;6.70;99.90;;;;;;5061328;28;20465;-76
2023/01/04 07:59:45;;;;;;;;;;;6.80;99.90;;;;;;5083687;28;19916;-74
2023/01/04 08:02:14;;;;;;;;;;;8.70;99.90;;;;;;5080896;28;19948;-74
2023/01/04 08:04:39;;;;;;;;;;;6.90;99.90;;;;;;5082120;28;19909;-78
2023/01/04 08:07:05;;;;;;;;;;;7.00;99.90;;;;;;5083773;28;19930;-76
2023/01/04 08:09:31;;;;;;;;;;;7.10;99.90;;;;;;5086189;28;19948;-74
2023/01/04 08:11:59;;;;;;;;;;;7.10;99.90;;;;;;5086774;28;19912;-76
2023/01/04 08:14:25;;;;;;;;;;;7.20;99.90;;;;;;5080536;28;19912;-75
2023/01/04 08:16:51;;;;;;;;;;;7.30;99.90;;;;;;5075071;28;19930;-76
2023/01/04 08:19:18;;;;;;;;;;;7.40;99.90;;;;;;5093860;28;20635;-76
2023/01/04 08:21:44;;;;;;;;;;;7.40;99.90;;;;;;5082481;28;19932;-75
2023/01/04 08:24:15;;;;;;;;;;;5.30;99.90;;;;;;5083567;28;19904;-75
2023/01/04 08:26:41;;;;;;;;;;;7.40;99.90;;;;;;5080598;28;20056;-75
2023/01/04 08:29:07;;;;;;;;;;;7.50;99.90;;;;;;5062325;28;19979;-76
2023/01/04 08:31:32;;;;;;;;;;;7.50;99.90;;;;;;5084117;28;20538;-78
2023/01/04 08:34:00;;;;;;;;;;;7.50;99.90;;;;;;5083605;28;19916;-78
2023/01/04 08:36:52;;;;;;;;;;;7.50;99.90;;;;;;5082390;28;19968;-77
2023/01/04 08:39:20;;;;;;;;;;;7.60;99.90;;;;;;5077605;28;19923;-75
2023/01/04 08:41:52;;;;;;;;;;;7.60;99.90;;;;;;5081137;28;19908;-77
2023/01/04 08:44:21;;;;;;;;;;;7.60;99.90;;;;;;5080016;28;19963;-74
2023/01/04 08:46:47;;;;;;;;;;;7.70;99.90;;;;;;5079802;28;19962;-75
2023/01/04 08:49:13;;;;;;;;;;;7.70;99.90;;;;;;5071931;28;19908;-80
2023/01/04 08:51:38;;;;;;;;;;;7.70;99.90;;;;;;5070473;28;19909;-75
2023/01/04 08:54:04;;;;;;;;;;;7.80;99.90;;;;;;5071993;28;20532;-78
2023/01/04 08:56:29;;;;;;;;;;;7.80;99.90;;;;;;5070308;28;19941;-78
2023/01/04 08:58:56;;;;;;;;;;;7.80;99.90;;;;;;5075690;28;19931;-80
2023/01/04 09:01:23;;;;;;;;;;;7.80;99.90;;;;;;5078863;28;19912;-79
2023/01/04 09:03:49;;;;;;;;;;;7.90;99.90;;;;;;5074648;28;19919;-77
2023/01/04 09:06:15;;;;;;;;;;;8.00;99.90;;;;;;5075637;28;20058;-78
2023/01/04 09:08:42;;;;;;;;;;;8.00;99.90;;;;;;5079908;28;19912;-76
2023/01/04 09:11:12;;;;;;;;;;;9.20;99.90;;;;;;5080666;28;19916;-77
2023/01/04 09:13:38;;;;;;;;;;;8.00;99.90;;;;;;5083952;28;19908;-77
2023/01/04 09:16:08;;;;;;;;;;;8.00;99.90;;;;;;5080065;28;19908;-77
2023/01/04 09:18:34;;;;;;;;;;;8.20;99.90;;;;;;5079326;28;19916;-76
2023/01/04 09:21:09;;;;;;;;;;;8.20;99.90;;;;;;5082385;28;19905;-79
2023/01/04 09:23:37;;;;;;;;;;;8.30;99.90;;;;;;5079844;28;20318;-77
2023/01/04 09:26:27;;;;;;;;;;;8.40;99.90;;;;;;5063263;28;19904;-78
2023/01/04 09:28:54;;;;;;;;;;;8.40;99.90;;;;;;5078333;28;19908;-75
2023/01/04 09:31:22;;;;;;;;;;;8.50;99.90;;;;;;5080606;28;20577;-79
2023/01/04 09:33:49;;;;;;;;;;;8.50;99.90;;;;;;5066543;28;19909;-77
2023/01/04 09:36:16;;;;;;;;;;;8.70;99.90;;;;;;5083804;28;20008;-75
2023/01/04 09:38:42;;;;;;;;;;;8.70;99.90;;;;;;5080975;28;19912;-83
2023/01/04 09:41:14;;;;;;;;;;;8.90;99.90;;;;;;5078701;28;19955;-77
2023/01/04 09:43:44;;;;;;;;;;;8.90;99.90;;;;;;5082349;28;20597;-75
2023/01/04 09:46:32;;;;;;;;;;;8.90;99.90;;;;;;5084455;28;19905;-77
2023/01/04 09:49:06;;;;;;;;;;;9.00;99.90;;;;;;5084656;28;19911;-76
2023/01/04 09:51:35;;;;;;;;;;;9.00;99.90;;;;;;5081324;28;19980;-74
2023/01/04 09:54:11;;;;;;;;;;;9.00;99.90;;;;;;5080912;28;19909;-77
2023/01/04 09:56:38;;;;;;;;;;;8.90;99.90;;;;;;5045419;28;19908;-75
2023/01/04 09:59:26;;;;;;;;;;;9.00;99.90;;;;;;5086875;28;19926;-76
2023/01/04 10:02:04;;;;;;;;;;;9.00;99.90;;;;;;5084396;28;19919;-76
2023/01/04 10:04:46;;;;;;;;;;;9.00;99.90;;;;;;5070529;28;19928;-76
2023/01/04 10:07:31;;;;;;;;;;;9.00;99.90;;;;;;5083101;28;19909;-75
2023/01/04 10:10:18;;;;;;;;;;;9.10;99.90;;;;;;5078502;28;19909;-74
2023/01/04 10:12:48;;;;;;;;;;;9.20;99.90;;;;;;5077463;28;19908;-76
2023/01/04 10:15:32;;;;;;;;;;;9.30;99.90;;;;;;5077366;28;19912;-76
2023/01/04 10:18:10;;;;;;;;;;;9.30;99.90;;;;;;5076768;28;19920;-75
2023/01/04 10:20:45;;;;;;;;;;;9.30;99.90;;;;;;5074986;28;20573;-75
2023/01/04 10:23:36;;;;;;;;;;;9.30;99.90;;;;;;5077943;28;20451;-77
2023/01/04 10:26:08;;;;;;;;;;;9.40;99.90;;;;;;5079703;28;19927;-75
2023/01/04 10:28:43;;;;;;;;;;;9.50;99.90;;;;;;5083323;28;19908;-75
2023/01/04 10:31:22;;;;;;;;;;;9.60;99.90;;;;;;5083020;28;19914;-74
2023/01/04 10:33:51;;;;;;;;;;;9.60;99.90;;;;;;5085612;28;19974;-78
2023/01/04 10:36:21;;;;;;;;;;;9.70;99.90;;;;;;5070909;28;19908;-75
2023/01/04 10:38:53;;;;;;;;;;;9.80;99.90;;;;;;5080486;28;19916;-76
2023/01/04 10:41:23;;;;;;;;;;;9.90;99.90;;;;;;5084311;28;19924;-76
2023/01/04 10:43:58;;;;;;;;;;;9.90;99.90;;;;;;5074283;28;19912;-75
2023/01/04 10:46:27;;;;;;;;;;;9.90;99.90;;;;;;5071453;28;20167;-74
2023/01/04 10:48:57;;;;;;;;;;;9.70;99.90;;;;;;5070803;28;20473;-73
2023/01/04 10:51:30;;;;;;;;;;;9.90;99.90;;;;;;5052970;28;19909;-76
2023/01/04 10:54:21;;;;;;;;;;;10.00;99.90;;;;;;5071833;28;19904;-77
2023/01/04 10:56:50;;;;;;;;;;;9.90;99.90;;;;;;5085419;28;19909;-75
2023/01/04 10:59:22;;;;;;;;;;;10.00;99.90;;;;;;5087992;28;19999;-76
2023/01/04 11:01:59;;;;;;;;;;;10.00;99.90;;;;;;5087770;28;19908;-79
2023/01/04 11:04:27;;;;;;;;;;;10.00;99.90;;;;;;5088369;28;19915;-74
2023/01/04 11:07:19;;;;;;;;;;;10.10;99.90;;;;;;5086023;28;19909;-75
2023/01/04 11:09:49;;;;;;;;;;;10.10;99.90;;;;;;5057961;28;19926;-76
2023/01/04 11:12:18;;;;;;;;;;;10.20;99.90;;;;;;5089888;28;20542;-80
2023/01/04 11:14:43;;;;;;;;;;;10.20;99.90;;;;;;5086322;28;19909;-80
2023/01/04 11:17:10;;;;;;;;;;;10.30;99.90;;;;;;5090649;28;19938;-75
2023/01/04 11:19:36;;;;;;;;;;;10.10;99.90;;;;;;5072154;28;19927;-76
2023/01/04 11:22:20;;;;;;;;;;;10.00;99.90;;;;;;5088533;28;19923;-76
2023/01/04 11:24:49;;;;;;;;;;;10.10;99.90;;;;;;5080167;28;19943;-79
2023/01/04 11:27:37;;;;;;;;;;;10.00;99.90;;;;;;5091452;28;19909;-75
2023/01/04 11:30:23;;;;;;;;;;;10.00;99.90;;;;;;5086626;28;19928;-75
2023/01/04 11:33:09;;;;;;;;;;;10.00;99.90;;;;;;5075724;28;20362;-75
2023/01/04 11:36:00;;;;;;;;;;;10.00;99.90;;;;;;5086959;28;19900;-81
2023/01/04 11:38:26;;;;;;;;;;;10.00;99.90;;;;;;5087892;28;20015;-76
2023/01/04 11:41:21;;;;;;;;;;;10.10;99.90;;;;;;5087779;28;19908;-77
2023/01/04 11:43:55;;;;;;;;;;;10.00;99.90;;;;;;5088149;28;19904;-78
2023/01/04 11:46:23;;;;;;;;;;;10.00;99.90;;;;;;5089299;28;19908;-74
2023/01/04 11:48:49;;;;;;;;;;;10.10;99.90;;;;;;5088569;28;19920;-78
2023/01/04 11:51:17;;;;;;;;;;;10.20;99.90;;;;;;5092163;28;19904;-75
2023/01/04 11:53:43;;;;;;;;;;;10.30;99.90;;;;;;5088653;28;19936;-82
2023/01/04 11:56:13;;;;;;;;;;;10.10;99.90;;;;;;5088179;28;19905;-76
2023/01/04 11:58:39;;;;;;;;;;;10.60;99.90;;;;;;5090788;28;19908;-76
2023/01/04 12:01:17;;;;;;;;;;;10.70;99.90;;;;;;5067588;28;19904;-75
2023/01/04 12:03:43;;;;;;;;;;;10.90;99.90;;;;;;5079523;28;19996;-77
2023/01/04 12:06:16;;;;;;;;;;;11.10;99.90;;;;;;5086919;28;19918;-80
2023/01/04 12:08:41;;;;;;;;;;;11.20;99.90;;;;;;5081215;28;19908;-78
2023/01/04 12:11:16;;;;;;;;;;;11.30;99.90;;;;;;5081384;28;19922;-78
2023/01/04 12:13:42;;;;;;;;;;;11.40;99.90;;;;;;5061046;28;19913;-79
2023/01/04 12:16:27;;;;;;;;;;;11.50;99.90;;;;;;5055357;28;19919;-75
2023/01/04 12:18:57;;;;;;;;;;;11.50;99.90;;;;;;5040106;28;19928;-76
2023/01/04 12:21:25;;;;;;;;;;;11.60;99.90;;;;;;5025265;28;20006;-76
2023/01/04 12:23:53;;;;;;;;;;;11.70;99.90;;;;;;5032309;28;19963;-81
2023/01/04 12:26:19;;;;;;;;;;;11.80;99.90;;;;;;5025463;28;20478;-80
2023/01/04 12:28:46;;;;;;;;;;;11.90;99.90;;;;;;5024552;28;19933;-86
2023/01/04 12:31:18;;;;;;;;;;;12.00;99.90;;;;;;5023309;28;19913;-79
2023/01/04 12:33:50;;;;;;;;;;;12.10;99.90;;;;;;5022117;28;20106;-82
2023/01/04 12:36:35;;;;;;;;;;;11.80;99.90;;;;;;5022368;28;19909;-84
2023/01/04 12:39:02;;;;;;;;;;;11.90;99.90;;;;;;5023928;28;19921;-79
2023/01/04 12:41:34;;;;;;;;;;;12.10;99.90;;;;;;5025218;28;20609;-79
2023/01/04 12:44:00;;;;;;;;;;;12.20;99.90;;;;;;5023883;28;19916;-78
2023/01/04 12:49:29;;;;;;;;;;;12.50;99.90;;;;;;5024157;28;19924;-78
2023/01/04 12:52:06;;;;;;;;;;;12.70;99.90;;;;;;5022200;28;19924;-82
2023/01/04 12:54:49;;;;;;;;;;;12.80;99.90;;;;;;5019499;28;19917;-86
2023/01/04 12:57:17;;;;;;;;;;;12.80;99.90;;;;;;5021176;28;19949;-77
2023/01/04 13:00:03;;;;;;;;;;;12.90;99.90;;;;;;5021527;28;19925;-77
2023/01/04 13:02:29;;;;;;;;;;;13.00;99.90;;;;;;5021773;28;19963;-78
2023/01/04 13:04:59;;;;;;;;;;;13.00;99.90;;;;;;5023536;28;19920;-75
2023/01/04 13:07:28;;;;;;;;;;;13.00;99.90;;;;;;5024792;28;19993;-80
2023/01/04 13:10:01;;;;;;;;;;;12.90;99.90;;;;;;5022350;28;19905;-85
2023/01/04 13:12:27;;;;;;;;;;;12.90;99.90;;;;;;5025302;28;19905;-85
2023/01/04 13:14:56;;;;;;;;;;;13.00;99.90;;;;;;5026357;28;20416;-80
2023/01/04 13:17:24;;;;;;;;;;;12.90;99.90;;;;;;5035100;28;19924;-76
2023/01/04 13:19:50;;;;;;;;;;;12.90;99.90;;;;;;5046270;28;19916;-86
2023/01/04 13:22:27;;;;;;;;;;;12.90;99.90;;;;;;5042826;28;19912;-75
2023/01/04 13:24:55;;;;;;;;;;;13.00;99.90;;;;;;5045744;28;19909;-88
2023/01/04 13:27:21;;;;;;;;;;;13.00;99.90;;;;;;5047329;28;20071;-76
2023/01/04 13:29:48;;;;;;;;;;;13.10;99.90;;;;;;5048511;28;19912;-79
2023/01/04 13:32:28;;;;;;;;;;;13.10;99.90;;;;;;5048271;28;19956;-85
2023/01/04 13:34:54;;;;;;;;;;;13.10;99.90;;;;;;5047562;28;20130;-78
2023/01/04 13:37:29;;;;;;;;;;;13.10;99.90;;;;;;5047240;28;19920;-78
2023/01/04 13:40:11;;;;;;;;;;;12.60;99.90;;;;;;5043514;28;19956;-76
2023/01/04 13:42:39;;;;;;;;;;;13.10;99.90;;;;;;5052677;28;19913;-76
2023/01/04 13:45:17;;;;;;;;;;;13.00;99.90;;;;;;5040247;28;19915;-75
2023/01/04 13:47:43;;;;;;;;;;;12.90;99.90;;;;;;5041438;28;19920;-76
2023/01/04 13:50:24;;;;;;;;;;;12.70;99.90;;;;;;5048258;28;19913;-73
2023/01/04 13:52:50;;;;;;;;;;;12.60;99.90;;;;;;5045736;28;20209;-74
2023/01/04 13:55:23;;;;;;;;;;;12.50;99.90;;;;;;5043546;28;20453;-83
2023/01/04 13:58:02;;;;;;;;;;;12.60;99.90;;;;;;5037436;28;19924;-85
2023/01/04 14:00:29;;;;;;;;;;;12.60;99.90;;;;;;5041515;28;19975;-76
2023/01/04 14:03:21;;;;;;;;;;;12.60;99.90;;;;;;5058537;28;19923;-86
2023/01/04 14:05:49;;;;;;;;;;;12.60;99.90;;;;;;5040491;28;19995;-73
2023/01/04 14:08:20;;;;;;;;;;;12.60;99.90;;;;;;5050395;28;19908;-76
2023/01/04 14:10:45;;;;;;;;;;;12.70;99.90;;;;;;5059166;28;19919;-72
2023/01/04 14:13:16;;;;;;;;;;;12.70;99.90;;;;;;5035179;28;19916;-76
2023/01/04 14:15:41;;;;;;;;;;;12.70;99.90;;;;;;5039648;28;19909;-82
2023/01/04 14:18:27;;;;;;;;;;;12.70;99.90;;;;;;5062972;28;19927;-74
2023/01/04 14:20:52;;;;;;;;;;;12.80;99.90;;;;;;5025172;28;19920;-74
2023/01/04 14:23:25;;;;;;;;;;;12.90;99.90;;;;;;5048861;28;19909;-83
2023/01/04 14:25:55;;;;;;;;;;;12.90;99.90;;;;;;5045152;28;20414;-83
2023/01/04 14:28:26;;;;;;;;;;;12.80;99.90;;;;;;5057607;28;19912;-85
2023/01/04 14:30:57;;;;;;;;;;;12.90;99.90;;;;;;5066748;28;19919;-83
2023/01/04 14:33:35;;;;;;;;;;;12.80;99.90;;;;;;5062780;28;19915;-79
2023/01/04 14:36:20;;;;;;;;;;;12.70;99.90;;;;;;5043301;28;19916;-76
2023/01/04 14:39:11;;;;;;;;;;;12.60;99.90;;;;;;5056339;28;19912;-74
2023/01/04 14:41:39;;;;;;;;;;;12.40;99.90;;;;;;5044343;28;19957;-81
2023/01/04 14:44:08;;;;;;;;;;;12.20;99.90;;;;;;5045089;28;20474;-75
2023/01/04 14:46:33;;;;;;;;;;;12.10;99.90;;;;;;5038786;28;20375;-81
2023/01/04 14:48:59;;;;;;;;;;;11.70;99.90;;;;;;5042724;28;20007;-73
2023/01/04 14:51:29;;;;;;;;;;;11.60;99.90;;;;;;5046526;28;19909;-74
2023/01/04 14:53:55;;;;;;;;;;;11.30;99.90;;;;;;5051143;28;19905;-75
2023/01/04 14:56:21;;;;;;;;;;;11.20;99.90;;;;;;5046192;28;19923;-74
2023/01/04 14:58:48;;;;;;;;;;;10.70;99.90;;;;;;5063577;28;19936;-73
2023/01/04 15:01:14;;;;;;;;;;;10.70;99.90;;;;;;5046717;28;19905;-75
2023/01/04 15:03:43;;;;;;;;;;;10.50;99.90;;;;;;5053717;28;19935;-74
2023/01/04 15:06:11;;;;;;;;;;;10.40;99.90;;;;;;5065220;28;19940;-74
2023/01/04 15:08:37;;;;;;;;;;;10.10;99.90;;;;;;5057604;28;19951;-74
2023/01/04 15:11:05;;;;;;;;;;;9.90;99.90;;;;;;5056228;28;19908;-75
2023/01/04 15:13:37;;;;;;;;;;;9.80;99.90;;;;;;5059128;28;19979;-73
2023/01/04 15:16:02;;;;;;;;;;;9.30;99.90;;;;;;5055589;28;19921;-75
2023/01/04 15:18:34;;;;;;;;;;;9.60;99.90;;;;;;5050903;28;19921;-73
2023/01/04 15:21:01;;;;;;;;;;;9.60;99.90;;;;;;5051901;28;20003;-76
2023/01/04 15:23:30;;;;;;;;;;;9.50;99.90;;;;;;5047526;28;19995;-74
2023/01/04 15:25:56;;;;;;;;;;;9.40;99.90;;;;;;5032191;28;19960;-74
2023/01/04 15:28:25;;;;;;;;;;;9.20;99.90;;;;;;5034667;28;19920;-75